Sharjah International Airport
OMSJ : now visible

Airfield :











YOU CAN JOIN US ON...

 
LOGIN :

Register | Disclaimer

   EN    FR    IT 

 









Legend :    VFR   Marginal VFR   IFR   Intensive IFR   Very Intensive IFR
Visi :
Ceiling :
>= 8 km
>= 3000ft
5 to 8 km
1000 to 3000 ft
1500m to 5 km
500 to 1000 ft
800 to 1500m
200 to 500 ft
< 800m
< 200 ft
Symbols :   Thunderstorms  Fog  Heavy snow  Heavy precipitations  Wind > 20 kt







- Airport Elevation : 111 ft
- IATA code : SHJ


OMSJ - Sharjah International

CURRENT METAR :
  • 161300Z 03010KT 6000 NSC 25/17 Q1013

EXPIRED METARs :
  • 161200Z 19010KT 9000 FEW030 31/10 Q1013
  • 161100Z 18012KT 8000 FEW030 31/09 Q1013

TAF TAF OMSJ
Valid from the 16 at 12:00 until the 17 at 18:00 UTC


161102Z 1612/1718 18012KT 8000 FEW030
BECMG 1612/1614 34012KT
BECMG 1615/1617 09006KT
BECMG 1703/1705 18013KT
PROB30
TEMPO 1704/1710 VRB20G40KT 3000 SHRA BLDU FEW040TCU
BECMG 1707/1709 34014KT
OMAE FIR / Asia



MET'MAP, your aeronautical weather chart ! - Copyright ORBIFLY December 2007 - Disclaimer

ORBIFLY MET'MAP TEAM :

Programming & Development : Alexandra Zaïnal
Concept & Development : Baudouin d'Aumeries
Co-Development & Prog : Marc-Olivier Méhu
Technical & hardware support : Manuel Goepfert

Contact : metmap@orbifly.com




SOURCES & CREDITS :

   NOAA       Earth
Advisory